sensor_id;sensor_type;location;lat;lon;timestamp;P1;durP1;ratioP1;P2;durP2;ratioP2
13764;SDS011;6953;48.810;9.204;2023-08-20T00:00:43;0.10;;;0.10;;
13764;SDS011;6953;48.810;9.204;2023-08-20T00:03:10;0.10;;;0.10;;
13764;SDS011;6953;48.810;9.204;2023-08-20T00:05:37;0.10;;;0.10;;
13764;SDS011;6953;48.810;9.204;2023-08-20T00:08:03;0.10;;;0.10;;
13764;SDS011;6953;48.810;9.204;2023-08-20T00:10:29;0.10;;;0.10;;
13764;SDS011;6953;48.810;9.204;2023-08-20T00:12:55;0.10;;;0.10;;
13764;SDS011;6953;48.810;9.204;2023-08-20T00:15:20;0.10;;;0.10;;
13764;SDS011;6953;48.810;9.204;2023-08-20T00:17:51;0.00;;;0.00;;
13764;SDS011;6953;48.810;9.204;2023-08-20T00:20:16;0.08;;;0.08;;
13764;SDS011;6953;48.810;9.204;2023-08-20T00:22:42;0.10;;;0.10;;
13764;SDS011;6953;48.810;9.204;2023-08-20T00:25:10;0.10;;;0.10;;
13764;SDS011;6953;48.810;9.204;2023-08-20T00:27:36;0.10;;;0.10;;
13764;SDS011;6953;48.810;9.204;2023-08-20T00:30:01;0.10;;;0.10;;
13764;SDS011;6953;48.810;9.204;2023-08-20T00:32:27;0.10;;;0.10;;
13764;SDS011;6953;48.810;9.204;2023-08-20T00:34:53;0.05;;;0.05;;
13764;SDS011;6953;48.810;9.204;2023-08-20T00:37:18;0.03;;;0.03;;
13764;SDS011;6953;48.810;9.204;2023-08-20T00:39:43;0.10;;;0.10;;
13764;SDS011;6953;48.810;9.204;2023-08-20T00:42:09;0.10;;;0.10;;
13764;SDS011;6953;48.810;9.204;2023-08-20T00:44:34;0.10;;;0.10;;
13764;SDS011;6953;48.810;9.204;2023-08-20T00:47:02;0.10;;;0.10;;
13764;SDS011;6953;48.810;9.204;2023-08-20T00:49:29;0.10;;;0.10;;
13764;SDS011;6953;48.810;9.204;2023-08-20T00:51:56;0.10;;;0.10;;
13764;SDS011;6953;48.810;9.204;2023-08-20T00:54:22;0.10;;;0.10;;
13764;SDS011;6953;48.810;9.204;2023-08-20T00:56:48;0.10;;;0.10;;
13764;SDS011;6953;48.810;9.204;2023-08-20T00:59:14;0.10;;;0.10;;
13764;SDS011;6953;48.810;9.204;2023-08-20T01:01:40;0.10;;;0.10;;
13764;SDS011;6953;48.810;9.204;2023-08-20T01:04:05;0.10;;;0.10;;
13764;SDS011;6953;48.810;9.204;2023-08-20T01:11:49;0.10;;;0.10;;
13764;SDS011;6953;48.810;9.204;2023-08-20T01:14:20;0.10;;;0.10;;
13764;SDS011;6953;48.810;9.204;2023-08-20T01:16:45;0.10;;;0.10;;
13764;SDS011;6953;48.810;9.204;2023-08-20T01:19:13;0.10;;;0.10;;
13764;SDS011;6953;48.810;9.204;2023-08-20T01:21:56;0.10;;;0.10;;
13764;SDS011;6953;48.810;9.204;2023-08-20T01:27:28;0.10;;;0.10;;
13764;SDS011;6953;48.810;9.204;2023-08-20T01:29:57;0.10;;;0.10;;
13764;SDS011;6953;48.810;9.204;2023-08-20T01:32:24;0.10;;;0.10;;
13764;SDS011;6953;48.810;9.204;2023-08-20T01:34:51;0.10;;;0.10;;
13764;SDS011;6953;48.810;9.204;2023-08-20T01:37:18;0.10;;;0.10;;
13764;SDS011;6953;48.810;9.204;2023-08-20T01:39:43;0.10;;;0.10;;
13764;SDS011;6953;48.810;9.204;2023-08-20T01:42:08;0.10;;;0.10;;
13764;SDS011;6953;48.810;9.204;2023-08-20T01:44:34;0.10;;;0.10;;
13764;SDS011;6953;48.810;9.204;2023-08-20T01:46:59;0.10;;;0.10;;
13764;SDS011;6953;48.810;9.204;2023-08-20T01:49:24;0.10;;;0.10;;
13764;SDS011;6953;48.810;9.204;2023-08-20T01:51:49;0.10;;;0.10;;
13764;SDS011;6953;48.810;9.204;2023-08-20T01:54:15;0.10;;;0.10;;
13764;SDS011;6953;48.810;9.204;2023-08-20T01:56:40;0.10;;;0.10;;
13764;SDS011;6953;48.810;9.204;2023-08-20T01:59:05;0.10;;;0.10;;
13764;SDS011;6953;48.810;9.204;2023-08-20T02:01:31;0.10;;;0.10;;
13764;SDS011;6953;48.810;9.204;2023-08-20T02:03:56;0.10;;;0.10;;
13764;SDS011;6953;48.810;9.204;2023-08-20T02:06:22;0.10;;;0.10;;
13764;SDS011;6953;48.810;9.204;2023-08-20T02:08:47;0.10;;;0.10;;
13764;SDS011;6953;48.810;9.204;2023-08-20T02:11:12;0.10;;;0.10;;
13764;SDS011;6953;48.810;9.204;2023-08-20T02:13:37;0.10;;;0.10;;
13764;SDS011;6953;48.810;9.204;2023-08-20T02:16:03;0.10;;;0.10;;
13764;SDS011;6953;48.810;9.204;2023-08-20T02:18:29;0.10;;;0.10;;
13764;SDS011;6953;48.810;9.204;2023-08-20T02:20:55;0.10;;;0.10;;
13764;SDS011;6953;48.810;9.204;2023-08-20T02:23:21;0.10;;;0.10;;
13764;SDS011;6953;48.810;9.204;2023-08-20T02:25:47;0.10;;;0.10;;
13764;SDS011;6953;48.810;9.204;2023-08-20T02:28:13;0.10;;;0.10;;
13764;SDS011;6953;48.810;9.204;2023-08-20T02:30:45;0.20;;;0.20;;
13764;SDS011;6953;48.810;9.204;2023-08-20T02:33:11;0.10;;;0.10;;
13764;SDS011;6953;48.810;9.204;2023-08-20T02:35:37;0.10;;;0.10;;
13764;SDS011;6953;48.810;9.204;2023-08-20T02:38:03;0.00;;;0.00;;
13764;SDS011;6953;48.810;9.204;2023-08-20T02:40:28;0.10;;;0.10;;
13764;SDS011;6953;48.810;9.204;2023-08-20T02:42:54;0.10;;;0.10;;
13764;SDS011;6953;48.810;9.204;2023-08-20T02:45:19;0.10;;;0.10;;
13764;SDS011;6953;48.810;9.204;2023-08-20T02:47:44;0.10;;;0.10;;
13764;SDS011;6953;48.810;9.204;2023-08-20T02:50:09;0.10;;;0.10;;
13764;SDS011;6953;48.810;9.204;2023-08-20T02:52:35;0.10;;;0.10;;
13764;SDS011;6953;48.810;9.204;2023-08-20T02:55:00;0.10;;;0.10;;
13764;SDS011;6953;48.810;9.204;2023-08-20T02:57:25;0.10;;;0.10;;
13764;SDS011;6953;48.810;9.204;2023-08-20T02:59:51;0.10;;;0.10;;
13764;SDS011;6953;48.810;9.204;2023-08-20T03:02:16;0.10;;;0.10;;
13764;SDS011;6953;48.810;9.204;2023-08-20T03:04:42;0.10;;;0.10;;
13764;SDS011;6953;48.810;9.204;2023-08-20T03:07:07;0.13;;;0.13;;
13764;SDS011;6953;48.810;9.204;2023-08-20T03:09:33;0.10;;;0.10;;
13764;SDS011;6953;48.810;9.204;2023-08-20T03:11:58;0.15;;;0.15;;
13764;SDS011;6953;48.810;9.204;2023-08-20T03:14:23;0.10;;;0.10;;
13764;SDS011;6953;48.810;9.204;2023-08-20T03:16:48;0.10;;;0.10;;
13764;SDS011;6953;48.810;9.204;2023-08-20T03:19:14;0.20;;;0.20;;
13764;SDS011;6953;48.810;9.204;2023-08-20T03:21:40;0.10;;;0.10;;
13764;SDS011;6953;48.810;9.204;2023-08-20T03:24:06;0.10;;;0.10;;
13764;SDS011;6953;48.810;9.204;2023-08-20T03:26:32;0.10;;;0.10;;
13764;SDS011;6953;48.810;9.204;2023-08-20T03:28:57;0.10;;;0.10;;
13764;SDS011;6953;48.810;9.204;2023-08-20T03:31:23;0.10;;;0.10;;
13764;SDS011;6953;48.810;9.204;2023-08-20T03:33:49;0.20;;;0.20;;
13764;SDS011;6953;48.810;9.204;2023-08-20T03:36:14;0.20;;;0.20;;
13764;SDS011;6953;48.810;9.204;2023-08-20T03:38:39;0.10;;;0.10;;
13764;SDS011;6953;48.810;9.204;2023-08-20T03:41:05;0.10;;;0.10;;
13764;SDS011;6953;48.810;9.204;2023-08-20T03:43:30;0.10;;;0.10;;
13764;SDS011;6953;48.810;9.204;2023-08-20T03:45:55;0.10;;;0.10;;
13764;SDS011;6953;48.810;9.204;2023-08-20T03:48:20;0.10;;;0.10;;
13764;SDS011;6953;48.810;9.204;2023-08-20T03:50:46;0.10;;;0.10;;
13764;SDS011;6953;48.810;9.204;2023-08-20T03:53:11;0.10;;;0.10;;
13764;SDS011;6953;48.810;9.204;2023-08-20T03:55:36;0.15;;;0.15;;
13764;SDS011;6953;48.810;9.204;2023-08-20T03:58:02;0.10;;;0.10;;
13764;SDS011;6953;48.810;9.204;2023-08-20T04:00:27;0.10;;;0.10;;
13764;SDS011;6953;48.810;9.204;2023-08-20T04:02:53;0.10;;;0.10;;
13764;SDS011;6953;48.810;9.204;2023-08-20T04:05:18;0.10;;;0.10;;
13764;SDS011;6953;48.810;9.204;2023-08-20T04:07:43;0.10;;;0.10;;
13764;SDS011;6953;48.810;9.204;2023-08-20T04:10:09;0.10;;;0.10;;
13764;SDS011;6953;48.810;9.204;2023-08-20T04:12:34;0.10;;;0.10;;
13764;SDS011;6953;48.810;9.204;2023-08-20T04:15:00;0.10;;;0.10;;
13764;SDS011;6953;48.810;9.204;2023-08-20T04:17:25;0.20;;;0.20;;
13764;SDS011;6953;48.810;9.204;2023-08-20T04:19:50;0.10;;;0.10;;
13764;SDS011;6953;48.810;9.204;2023-08-20T04:22:15;0.13;;;0.13;;
13764;SDS011;6953;48.810;9.204;2023-08-20T04:24:41;0.10;;;0.10;;
13764;SDS011;6953;48.810;9.204;2023-08-20T04:27:06;0.10;;;0.10;;
13764;SDS011;6953;48.810;9.204;2023-08-20T04:29:32;0.10;;;0.10;;
13764;SDS011;6953;48.810;9.204;2023-08-20T04:31:57;0.10;;;0.10;;
13764;SDS011;6953;48.810;9.204;2023-08-20T04:34:23;0.13;;;0.13;;
13764;SDS011;6953;48.810;9.204;2023-08-20T04:36:48;0.15;;;0.15;;
13764;SDS011;6953;48.810;9.204;2023-08-20T04:39:13;0.10;;;0.10;;
13764;SDS011;6953;48.810;9.204;2023-08-20T04:41:39;0.10;;;0.10;;
13764;SDS011;6953;48.810;9.204;2023-08-20T04:44:04;0.13;;;0.13;;
13764;SDS011;6953;48.810;9.204;2023-08-20T04:46:29;0.10;;;0.10;;
13764;SDS011;6953;48.810;9.204;2023-08-20T04:48:54;0.20;;;0.20;;
13764;SDS011;6953;48.810;9.204;2023-08-20T04:51:20;0.10;;;0.10;;
13764;SDS011;6953;48.810;9.204;2023-08-20T04:53:45;0.10;;;0.10;;
13764;SDS011;6953;48.810;9.204;2023-08-20T04:56:12;0.00;;;0.00;;
13764;SDS011;6953;48.810;9.204;2023-08-20T04:58:38;0.20;;;0.20;;
13764;SDS011;6953;48.810;9.204;2023-08-20T05:01:03;0.20;;;0.20;;
13764;SDS011;6953;48.810;9.204;2023-08-20T05:03:28;0.10;;;0.10;;
13764;SDS011;6953;48.810;9.204;2023-08-20T05:05:53;0.10;;;0.10;;
13764;SDS011;6953;48.810;9.204;2023-08-20T05:08:19;0.10;;;0.10;;
13764;SDS011;6953;48.810;9.204;2023-08-20T05:10:44;0.10;;;0.10;;
13764;SDS011;6953;48.810;9.204;2023-08-20T05:13:10;0.10;;;0.10;;
13764;SDS011;6953;48.810;9.204;2023-08-20T05:15:35;0.10;;;0.10;;
13764;SDS011;6953;48.810;9.204;2023-08-20T05:18:00;0.10;;;0.10;;
13764;SDS011;6953;48.810;9.204;2023-08-20T05:20:26;0.10;;;0.10;;
13764;SDS011;6953;48.810;9.204;2023-08-20T05:22:51;0.10;;;0.10;;
13764;SDS011;6953;48.810;9.204;2023-08-20T05:25:16;0.10;;;0.10;;
13764;SDS011;6953;48.810;9.204;2023-08-20T05:27:42;0.10;;;0.10;;
13764;SDS011;6953;48.810;9.204;2023-08-20T05:30:07;0.10;;;0.10;;
13764;SDS011;6953;48.810;9.204;2023-08-20T05:32:33;0.10;;;0.10;;
13764;SDS011;6953;48.810;9.204;2023-08-20T05:34:58;0.10;;;0.10;;
13764;SDS011;6953;48.810;9.204;2023-08-20T05:37:24;0.10;;;0.10;;
13764;SDS011;6953;48.810;9.204;2023-08-20T05:39:49;0.05;;;0.05;;
13764;SDS011;6953;48.810;9.204;2023-08-20T05:42:14;0.10;;;0.10;;
13764;SDS011;6953;48.810;9.204;2023-08-20T05:44:40;0.10;;;0.10;;
13764;SDS011;6953;48.810;9.204;2023-08-20T05:47:07;0.05;;;0.05;;
13764;SDS011;6953;48.810;9.204;2023-08-20T05:49:32;0.03;;;0.03;;
13764;SDS011;6953;48.810;9.204;2023-08-20T05:51:58;0.00;;;0.00;;
13764;SDS011;6953;48.810;9.204;2023-08-20T05:54:23;0.10;;;0.10;;
13764;SDS011;6953;48.810;9.204;2023-08-20T05:56:48;0.00;;;0.00;;
13764;SDS011;6953;48.810;9.204;2023-08-20T05:59:13;0.00;;;0.00;;
13764;SDS011;6953;48.810;9.204;2023-08-20T06:01:39;0.00;;;0.00;;
13764;SDS011;6953;48.810;9.204;2023-08-20T06:04:04;0.10;;;0.10;;
13764;SDS011;6953;48.810;9.204;2023-08-20T06:06:29;0.10;;;0.10;;
13764;SDS011;6953;48.810;9.204;2023-08-20T06:08:55;0.00;;;0.00;;
13764;SDS011;6953;48.810;9.204;2023-08-20T06:11:20;0.00;;;0.00;;
13764;SDS011;6953;48.810;9.204;2023-08-20T06:13:46;0.00;;;0.00;;
13764;SDS011;6953;48.810;9.204;2023-08-20T06:16:11;0.00;;;0.00;;
13764;SDS011;6953;48.810;9.204;2023-08-20T06:18:36;0.00;;;0.00;;
13764;SDS011;6953;48.810;9.204;2023-08-20T06:21:02;0.00;;;0.00;;
13764;SDS011;6953;48.810;9.204;2023-08-20T06:23:27;0.00;;;0.00;;
13764;SDS011;6953;48.810;9.204;2023-08-20T06:25:53;0.00;;;0.00;;
13764;SDS011;6953;48.810;9.204;2023-08-20T06:28:18;0.00;;;0.00;;
13764;SDS011;6953;48.810;9.204;2023-08-20T06:30:44;0.00;;;0.00;;
13764;SDS011;6953;48.810;9.204;2023-08-20T06:33:10;0.00;;;0.00;;
13764;SDS011;6953;48.810;9.204;2023-08-20T06:35:35;0.00;;;0.00;;
13764;SDS011;6953;48.810;9.204;2023-08-20T06:38:01;0.00;;;0.00;;
13764;SDS011;6953;48.810;9.204;2023-08-20T06:40:26;0.00;;;0.00;;
13764;SDS011;6953;48.810;9.204;2023-08-20T06:42:51;0.00;;;0.00;;
13764;SDS011;6953;48.810;9.204;2023-08-20T06:45:16;0.00;;;0.00;;
13764;SDS011;6953;48.810;9.204;2023-08-20T06:47:42;0.00;;;0.00;;
13764;SDS011;6953;48.810;9.204;2023-08-20T06:50:07;0.00;;;0.00;;
13764;SDS011;6953;48.810;9.204;2023-08-20T06:52:33;0.00;;;0.00;;
13764;SDS011;6953;48.810;9.204;2023-08-20T06:54:58;0.00;;;0.00;;
13764;SDS011;6953;48.810;9.204;2023-08-20T06:57:23;0.00;;;0.00;;
13764;SDS011;6953;48.810;9.204;2023-08-20T06:59:48;0.00;;;0.00;;
13764;SDS011;6953;48.810;9.204;2023-08-20T07:02:14;0.00;;;0.00;;
13764;SDS011;6953;48.810;9.204;2023-08-20T07:04:39;0.00;;;0.00;;
13764;SDS011;6953;48.810;9.204;2023-08-20T07:07:04;0.00;;;0.00;;
13764;SDS011;6953;48.810;9.204;2023-08-20T07:09:30;0.00;;;0.00;;
13764;SDS011;6953;48.810;9.204;2023-08-20T07:11:55;0.00;;;0.00;;
13764;SDS011;6953;48.810;9.204;2023-08-20T07:14:21;0.00;;;0.00;;
13764;SDS011;6953;48.810;9.204;2023-08-20T07:16:46;0.00;;;0.00;;
13764;SDS011;6953;48.810;9.204;2023-08-20T07:19:11;0.00;;;0.00;;
13764;SDS011;6953;48.810;9.204;2023-08-20T07:21:37;0.00;;;0.00;;
13764;SDS011;6953;48.810;9.204;2023-08-20T07:24:02;0.00;;;0.00;;
13764;SDS011;6953;48.810;9.204;2023-08-20T07:26:27;0.00;;;0.00;;
13764;SDS011;6953;48.810;9.204;2023-08-20T07:28:53;0.00;;;0.00;;
13764;SDS011;6953;48.810;9.204;2023-08-20T07:31:21;0.00;;;0.00;;
13764;SDS011;6953;48.810;9.204;2023-08-20T07:33:47;0.00;;;0.00;;
13764;SDS011;6953;48.810;9.204;2023-08-20T07:36:13;0.00;;;0.00;;
13764;SDS011;6953;48.810;9.204;2023-08-20T07:38:40;0.00;;;0.00;;
13764;SDS011;6953;48.810;9.204;2023-08-20T07:41:07;0.00;;;0.00;;
13764;SDS011;6953;48.810;9.204;2023-08-20T07:43:33;0.00;;;0.00;;
13764;SDS011;6953;48.810;9.204;2023-08-20T07:45:58;0.00;;;0.00;;
13764;SDS011;6953;48.810;9.204;2023-08-20T07:48:23;0.00;;;0.00;;
13764;SDS011;6953;48.810;9.204;2023-08-20T07:50:49;0.00;;;0.00;;
13764;SDS011;6953;48.810;9.204;2023-08-20T07:53:14;0.00;;;0.00;;
13764;SDS011;6953;48.810;9.204;2023-08-20T07:55:39;0.00;;;0.00;;
13764;SDS011;6953;48.810;9.204;2023-08-20T07:58:05;0.00;;;0.00;;
13764;SDS011;6953;48.810;9.204;2023-08-20T08:00:30;0.00;;;0.00;;
13764;SDS011;6953;48.810;9.204;2023-08-20T08:02:56;0.00;;;0.00;;
13764;SDS011;6953;48.810;9.204;2023-08-20T08:05:21;0.00;;;0.00;;
13764;SDS011;6953;48.810;9.204;2023-08-20T08:07:46;0.00;;;0.00;;
13764;SDS011;6953;48.810;9.204;2023-08-20T08:10:12;0.00;;;0.00;;
13764;SDS011;6953;48.810;9.204;2023-08-20T08:12:37;0.00;;;0.00;;
13764;SDS011;6953;48.810;9.204;2023-08-20T08:15:02;0.00;;;0.00;;
13764;SDS011;6953;48.810;9.204;2023-08-20T08:17:28;0.00;;;0.00;;
13764;SDS011;6953;48.810;9.204;2023-08-20T08:19:53;0.00;;;0.00;;
13764;SDS011;6953;48.810;9.204;2023-08-20T08:22:20;0.00;;;0.00;;
13764;SDS011;6953;48.810;9.204;2023-08-20T08:24:45;0.00;;;0.00;;
13764;SDS011;6953;48.810;9.204;2023-08-20T08:27:10;0.00;;;0.00;;
13764;SDS011;6953;48.810;9.204;2023-08-20T08:29:36;0.00;;;0.00;;
13764;SDS011;6953;48.810;9.204;2023-08-20T08:32:01;0.00;;;0.00;;
13764;SDS011;6953;48.810;9.204;2023-08-20T08:34:26;0.00;;;0.00;;
13764;SDS011;6953;48.810;9.204;2023-08-20T08:36:51;0.00;;;0.00;;
13764;SDS011;6953;48.810;9.204;2023-08-20T08:39:17;0.00;;;0.00;;
13764;SDS011;6953;48.810;9.204;2023-08-20T08:41:42;0.00;;;0.00;;
13764;SDS011;6953;48.810;9.204;2023-08-20T08:44:08;0.00;;;0.00;;
13764;SDS011;6953;48.810;9.204;2023-08-20T08:46:37;0.00;;;0.00;;
13764;SDS011;6953;48.810;9.204;2023-08-20T08:49:03;0.00;;;0.00;;
13764;SDS011;6953;48.810;9.204;2023-08-20T08:51:29;0.00;;;0.00;;
13764;SDS011;6953;48.810;9.204;2023-08-20T08:53:55;0.00;;;0.00;;
13764;SDS011;6953;48.810;9.204;2023-08-20T08:56:21;0.00;;;0.00;;
13764;SDS011;6953;48.810;9.204;2023-08-20T08:58:47;0.00;;;0.00;;
13764;SDS011;6953;48.810;9.204;2023-08-20T09:01:13;0.00;;;0.00;;
13764;SDS011;6953;48.810;9.204;2023-08-20T09:03:38;0.00;;;0.00;;
13764;SDS011;6953;48.810;9.204;2023-08-20T09:06:07;0.00;;;0.00;;
13764;SDS011;6953;48.810;9.204;2023-08-20T09:08:34;0.00;;;0.00;;
13764;SDS011;6953;48.810;9.204;2023-08-20T09:11:00;0.00;;;0.00;;
13764;SDS011;6953;48.810;9.204;2023-08-20T09:13:36;0.00;;;0.00;;
13764;SDS011;6953;48.810;9.204;2023-08-20T09:16:05;0.00;;;0.00;;
13764;SDS011;6953;48.810;9.204;2023-08-20T09:18:32;0.00;;;0.00;;
13764;SDS011;6953;48.810;9.204;2023-08-20T09:21:05;0.00;;;0.00;;
13764;SDS011;6953;48.810;9.204;2023-08-20T09:23:31;0.00;;;0.00;;
13764;SDS011;6953;48.810;9.204;2023-08-20T09:25:57;0.00;;;0.00;;
13764;SDS011;6953;48.810;9.204;2023-08-20T09:28:22;0.00;;;0.00;;
13764;SDS011;6953;48.810;9.204;2023-08-20T09:30:59;0.00;;;0.00;;
13764;SDS011;6953;48.810;9.204;2023-08-20T09:33:28;0.00;;;0.00;;
13764;SDS011;6953;48.810;9.204;2023-08-20T09:35:54;0.00;;;0.00;;
13764;SDS011;6953;48.810;9.204;2023-08-20T09:38:20;0.00;;;0.00;;
13764;SDS011;6953;48.810;9.204;2023-08-20T09:40:55;0.00;;;0.00;;
13764;SDS011;6953;48.810;9.204;2023-08-20T09:43:25;0.00;;;0.00;;
13764;SDS011;6953;48.810;9.204;2023-08-20T09:45:55;0.00;;;0.00;;
13764;SDS011;6953;48.810;9.204;2023-08-20T09:48:24;0.00;;;0.00;;
13764;SDS011;6953;48.810;9.204;2023-08-20T09:50:52;0.00;;;0.00;;
13764;SDS011;6953;48.810;9.204;2023-08-20T09:53:29;0.00;;;0.00;;
13764;SDS011;6953;48.810;9.204;2023-08-20T09:56:09;0.00;;;0.00;;
13764;SDS011;6953;48.810;9.204;2023-08-20T09:58:40;0.00;;;0.00;;
13764;SDS011;6953;48.810;9.204;2023-08-20T10:01:05;0.00;;;0.00;;
13764;SDS011;6953;48.810;9.204;2023-08-20T10:03:32;0.00;;;0.00;;
13764;SDS011;6953;48.810;9.204;2023-08-20T10:05:58;0.00;;;0.00;;
13764;SDS011;6953;48.810;9.204;2023-08-20T10:08:25;0.00;;;0.00;;
13764;SDS011;6953;48.810;9.204;2023-08-20T10:10:52;0.00;;;0.00;;
13764;SDS011;6953;48.810;9.204;2023-08-20T10:13:17;0.00;;;0.00;;
13764;SDS011;6953;48.810;9.204;2023-08-20T10:15:43;0.00;;;0.00;;
13764;SDS011;6953;48.810;9.204;2023-08-20T10:18:09;0.00;;;0.00;;
13764;SDS011;6953;48.810;9.204;2023-08-20T10:20:34;0.00;;;0.00;;
13764;SDS011;6953;48.810;9.204;2023-08-20T10:23:01;0.00;;;0.00;;
13764;SDS011;6953;48.810;9.204;2023-08-20T10:25:29;0.00;;;0.00;;
13764;SDS011;6953;48.810;9.204;2023-08-20T10:27:54;0.00;;;0.00;;
13764;SDS011;6953;48.810;9.204;2023-08-20T10:30:36;0.00;;;0.00;;
13764;SDS011;6953;48.810;9.204;2023-08-20T10:33:02;0.00;;;0.00;;
13764;SDS011;6953;48.810;9.204;2023-08-20T10:35:29;0.00;;;0.00;;
13764;SDS011;6953;48.810;9.204;2023-08-20T10:38:13;0.00;;;0.00;;
13764;SDS011;6953;48.810;9.204;2023-08-20T10:43:31;0.00;;;0.00;;
13764;SDS011;6953;48.810;9.204;2023-08-20T10:48:43;0.00;;;0.00;;
13764;SDS011;6953;48.810;9.204;2023-08-20T10:51:16;0.00;;;0.00;;
13764;SDS011;6953;48.810;9.204;2023-08-20T10:59:10;0.00;;;0.00;;
13764;SDS011;6953;48.810;9.204;2023-08-20T11:01:55;0.00;;;0.00;;
13764;SDS011;6953;48.810;9.204;2023-08-20T11:04:22;0.00;;;0.00;;
13764;SDS011;6953;48.810;9.204;2023-08-20T11:06:49;0.00;;;0.00;;
13764;SDS011;6953;48.810;9.204;2023-08-20T11:09:17;0.00;;;0.00;;
13764;SDS011;6953;48.810;9.204;2023-08-20T11:11:42;0.00;;;0.00;;
13764;SDS011;6953;48.810;9.204;2023-08-20T11:14:11;0.00;;;0.00;;
13764;SDS011;6953;48.810;9.204;2023-08-20T11:16:40;0.00;;;0.00;;
13764;SDS011;6953;48.810;9.204;2023-08-20T11:19:06;0.00;;;0.00;;
13764;SDS011;6953;48.810;9.204;2023-08-20T11:21:35;0.00;;;0.00;;
13764;SDS011;6953;48.810;9.204;2023-08-20T11:24:02;0.00;;;0.00;;
13764;SDS011;6953;48.810;9.204;2023-08-20T11:26:29;0.00;;;0.00;;
13764;SDS011;6953;48.810;9.204;2023-08-20T11:28:54;0.00;;;0.00;;
13764;SDS011;6953;48.810;9.204;2023-08-20T11:31:20;0.00;;;0.00;;
13764;SDS011;6953;48.810;9.204;2023-08-20T11:33:45;0.00;;;0.00;;
13764;SDS011;6953;48.810;9.204;2023-08-20T11:36:12;0.00;;;0.00;;
13764;SDS011;6953;48.810;9.204;2023-08-20T11:38:40;0.00;;;0.00;;
13764;SDS011;6953;48.810;9.204;2023-08-20T11:41:05;0.00;;;0.00;;
13764;SDS011;6953;48.810;9.204;2023-08-20T11:43:30;0.10;;;0.10;;
13764;SDS011;6953;48.810;9.204;2023-08-20T11:45:56;0.00;;;0.00;;
13764;SDS011;6953;48.810;9.204;2023-08-20T11:48:21;0.00;;;0.00;;
13764;SDS011;6953;48.810;9.204;2023-08-20T11:50:47;0.00;;;0.00;;
13764;SDS011;6953;48.810;9.204;2023-08-20T11:53:14;0.00;;;0.00;;
13764;SDS011;6953;48.810;9.204;2023-08-20T11:55:40;0.00;;;0.00;;
13764;SDS011;6953;48.810;9.204;2023-08-20T11:58:08;0.00;;;0.00;;
13764;SDS011;6953;48.810;9.204;2023-08-20T12:00:35;0.00;;;0.00;;
13764;SDS011;6953;48.810;9.204;2023-08-20T12:03:01;0.00;;;0.00;;
13764;SDS011;6953;48.810;9.204;2023-08-20T12:05:30;0.00;;;0.00;;
13764;SDS011;6953;48.810;9.204;2023-08-20T12:07:56;0.00;;;0.00;;
13764;SDS011;6953;48.810;9.204;2023-08-20T12:10:29;0.00;;;0.00;;
13764;SDS011;6953;48.810;9.204;2023-08-20T12:12:55;0.00;;;0.00;;
13764;SDS011;6953;48.810;9.204;2023-08-20T12:15:22;0.00;;;0.00;;
13764;SDS011;6953;48.810;9.204;2023-08-20T12:17:55;0.00;;;0.00;;
13764;SDS011;6953;48.810;9.204;2023-08-20T12:20:29;0.00;;;0.00;;
13764;SDS011;6953;48.810;9.204;2023-08-20T12:22:58;0.00;;;0.00;;
13764;SDS011;6953;48.810;9.204;2023-08-20T12:25:25;0.00;;;0.00;;
13764;SDS011;6953;48.810;9.204;2023-08-20T12:27:50;0.00;;;0.00;;
13764;SDS011;6953;48.810;9.204;2023-08-20T12:30:16;0.00;;;0.00;;
13764;SDS011;6953;48.810;9.204;2023-08-20T12:32:41;0.00;;;0.00;;
13764;SDS011;6953;48.810;9.204;2023-08-20T12:35:06;0.00;;;0.00;;
13764;SDS011;6953;48.810;9.204;2023-08-20T12:37:32;0.00;;;0.00;;
13764;SDS011;6953;48.810;9.204;2023-08-20T12:39:57;0.00;;;0.00;;
13764;SDS011;6953;48.810;9.204;2023-08-20T12:42:23;0.00;;;0.00;;
13764;SDS011;6953;48.810;9.204;2023-08-20T12:44:48;0.00;;;0.00;;
13764;SDS011;6953;48.810;9.204;2023-08-20T12:47:14;0.00;;;0.00;;
13764;SDS011;6953;48.810;9.204;2023-08-20T12:49:39;0.00;;;0.00;;
13764;SDS011;6953;48.810;9.204;2023-08-20T12:52:04;0.00;;;0.00;;
13764;SDS011;6953;48.810;9.204;2023-08-20T12:54:30;0.00;;;0.00;;
13764;SDS011;6953;48.810;9.204;2023-08-20T12:56:55;0.00;;;0.00;;
13764;SDS011;6953;48.810;9.204;2023-08-20T12:59:20;0.00;;;0.00;;
13764;SDS011;6953;48.810;9.204;2023-08-20T13:01:45;0.00;;;0.00;;
13764;SDS011;6953;48.810;9.204;2023-08-20T13:04:12;0.00;;;0.00;;
13764;SDS011;6953;48.810;9.204;2023-08-20T13:06:37;0.00;;;0.00;;
13764;SDS011;6953;48.810;9.204;2023-08-20T13:09:03;0.00;;;0.00;;
13764;SDS011;6953;48.810;9.204;2023-08-20T13:11:28;0.00;;;0.00;;
13764;SDS011;6953;48.810;9.204;2023-08-20T13:13:56;0.00;;;0.00;;
13764;SDS011;6953;48.810;9.204;2023-08-20T13:16:21;0.00;;;0.00;;
13764;SDS011;6953;48.810;9.204;2023-08-20T13:18:47;0.00;;;0.00;;
13764;SDS011;6953;48.810;9.204;2023-08-20T13:21:12;0.00;;;0.00;;
13764;SDS011;6953;48.810;9.204;2023-08-20T13:23:38;0.00;;;0.00;;
13764;SDS011;6953;48.810;9.204;2023-08-20T13:26:03;0.00;;;0.00;;
13764;SDS011;6953;48.810;9.204;2023-08-20T13:28:28;0.00;;;0.00;;
13764;SDS011;6953;48.810;9.204;2023-08-20T13:30:54;0.00;;;0.00;;
13764;SDS011;6953;48.810;9.204;2023-08-20T13:33:19;0.00;;;0.00;;
13764;SDS011;6953;48.810;9.204;2023-08-20T13:35:44;0.00;;;0.00;;
13764;SDS011;6953;48.810;9.204;2023-08-20T13:38:09;0.00;;;0.00;;
13764;SDS011;6953;48.810;9.204;2023-08-20T13:40:35;0.00;;;0.00;;
13764;SDS011;6953;48.810;9.204;2023-08-20T13:43:00;0.00;;;0.00;;
13764;SDS011;6953;48.810;9.204;2023-08-20T13:45:25;0.00;;;0.00;;
13764;SDS011;6953;48.810;9.204;2023-08-20T13:47:51;0.00;;;0.00;;
13764;SDS011;6953;48.810;9.204;2023-08-20T13:50:16;0.00;;;0.00;;
13764;SDS011;6953;48.810;9.204;2023-08-20T13:52:41;0.00;;;0.00;;
13764;SDS011;6953;48.810;9.204;2023-08-20T13:55:07;0.00;;;0.00;;
13764;SDS011;6953;48.810;9.204;2023-08-20T13:57:33;0.00;;;0.00;;
13764;SDS011;6953;48.810;9.204;2023-08-20T13:59:58;0.00;;;0.00;;
13764;SDS011;6953;48.810;9.204;2023-08-20T14:02:23;0.00;;;0.00;;
13764;SDS011;6953;48.810;9.204;2023-08-20T14:04:49;0.00;;;0.00;;
13764;SDS011;6953;48.810;9.204;2023-08-20T14:07:14;0.00;;;0.00;;
13764;SDS011;6953;48.810;9.204;2023-08-20T14:09:39;0.00;;;0.00;;
13764;SDS011;6953;48.810;9.204;2023-08-20T14:12:05;0.00;;;0.00;;
13764;SDS011;6953;48.810;9.204;2023-08-20T14:14:31;0.00;;;0.00;;
13764;SDS011;6953;48.810;9.204;2023-08-20T14:16:56;0.00;;;0.00;;
13764;SDS011;6953;48.810;9.204;2023-08-20T14:19:22;0.00;;;0.00;;
13764;SDS011;6953;48.810;9.204;2023-08-20T14:21:47;0.00;;;0.00;;
13764;SDS011;6953;48.810;9.204;2023-08-20T14:24:12;0.00;;;0.00;;
13764;SDS011;6953;48.810;9.204;2023-08-20T14:26:38;0.00;;;0.00;;
13764;SDS011;6953;48.810;9.204;2023-08-20T14:29:03;0.00;;;0.00;;
13764;SDS011;6953;48.810;9.204;2023-08-20T14:31:28;0.00;;;0.00;;
13764;SDS011;6953;48.810;9.204;2023-08-20T14:33:55;0.00;;;0.00;;
13764;SDS011;6953;48.810;9.204;2023-08-20T14:36:20;0.00;;;0.00;;
13764;SDS011;6953;48.810;9.204;2023-08-20T14:38:46;0.00;;;0.00;;
13764;SDS011;6953;48.810;9.204;2023-08-20T14:41:11;0.00;;;0.00;;
13764;SDS011;6953;48.810;9.204;2023-08-20T14:43:36;0.00;;;0.00;;
13764;SDS011;6953;48.810;9.204;2023-08-20T14:46:01;0.00;;;0.00;;
13764;SDS011;6953;48.810;9.204;2023-08-20T14:48:27;0.00;;;0.00;;
13764;SDS011;6953;48.810;9.204;2023-08-20T14:50:52;0.00;;;0.00;;
13764;SDS011;6953;48.810;9.204;2023-08-20T14:53:18;0.00;;;0.00;;
13764;SDS011;6953;48.810;9.204;2023-08-20T14:55:44;0.00;;;0.00;;
13764;SDS011;6953;48.810;9.204;2023-08-20T14:58:09;0.00;;;0.00;;
13764;SDS011;6953;48.810;9.204;2023-08-20T15:00:35;0.00;;;0.00;;
13764;SDS011;6953;48.810;9.204;2023-08-20T15:03:00;0.00;;;0.00;;
13764;SDS011;6953;48.810;9.204;2023-08-20T15:05:26;0.00;;;0.00;;
13764;SDS011;6953;48.810;9.204;2023-08-20T15:07:51;0.00;;;0.00;;
13764;SDS011;6953;48.810;9.204;2023-08-20T15:10:17;0.00;;;0.00;;
13764;SDS011;6953;48.810;9.204;2023-08-20T15:12:43;0.00;;;0.00;;